sensor_id;sensor_type;location;lat;lon;timestamp;temperature;humidity
17740;DHT22;8990;33.226;-97.150;2023-07-31T00:00:02;38.40;94.00
17740;DHT22;8990;33.226;-97.150;2023-07-31T00:02:32;38.40;94.20
17740;DHT22;8990;33.226;-97.150;2023-07-31T00:05:01;38.30;94.20
17740;DHT22;8990;33.226;-97.150;2023-07-31T00:07:30;38.20;94.40
17740;DHT22;8990;33.226;-97.150;2023-07-31T00:09:59;38.10;94.40
17740;DHT22;8990;33.226;-97.150;2023-07-31T00:12:29;38.10;94.30
17740;DHT22;8990;33.226;-97.150;2023-07-31T00:14:58;38.10;94.50
17740;DHT22;8990;33.226;-97.150;2023-07-31T00:17:27;38.20;94.70
17740;DHT22;8990;33.226;-97.150;2023-07-31T00:19:57;38.20;94.70
17740;DHT22;8990;33.226;-97.150;2023-07-31T00:22:26;38.20;94.80
17740;DHT22;8990;33.226;-97.150;2023-07-31T00:24:56;38.10;94.70
17740;DHT22;8990;33.226;-97.150;2023-07-31T00:27:28;38.10;94.70
17740;DHT22;8990;33.226;-97.150;2023-07-31T00:29:57;37.90;94.90
17740;DHT22;8990;33.226;-97.150;2023-07-31T00:32:26;37.80;94.90
17740;DHT22;8990;33.226;-97.150;2023-07-31T00:34:56;37.80;95.30
17740;DHT22;8990;33.226;-97.150;2023-07-31T00:37:25;37.70;94.90
17740;DHT22;8990;33.226;-97.150;2023-07-31T00:39:54;37.60;95.00
17740;DHT22;8990;33.226;-97.150;2023-07-31T00:42:23;37.60;94.90
17740;DHT22;8990;33.226;-97.150;2023-07-31T00:44:53;37.60;94.90
17740;DHT22;8990;33.226;-97.150;2023-07-31T00:47:22;37.50;94.90
17740;DHT22;8990;33.226;-97.150;2023-07-31T00:49:51;37.40;94.90
17740;DHT22;8990;33.226;-97.150;2023-07-31T00:52:21;37.40;95.10
17740;DHT22;8990;33.226;-97.150;2023-07-31T00:54:50;37.40;95.10
17740;DHT22;8990;33.226;-97.150;2023-07-31T00:57:19;37.30;95.20
17740;DHT22;8990;33.226;-97.150;2023-07-31T00:59:48;37.30;95.40
17740;DHT22;8990;33.226;-97.150;2023-07-31T01:02:18;37.40;95.50
17740;DHT22;8990;33.226;-97.150;2023-07-31T01:04:48;37.30;95.60
17740;DHT22;8990;33.226;-97.150;2023-07-31T01:07:20;37.30;95.50
17740;DHT22;8990;33.226;-97.150;2023-07-31T01:09:58;37.40;95.70
17740;DHT22;8990;33.226;-97.150;2023-07-31T01:12:32;37.30;95.60
17740;DHT22;8990;33.226;-97.150;2023-07-31T01:15:07;37.30;95.80
17740;DHT22;8990;33.226;-97.150;2023-07-31T01:17:39;37.20;95.90
17740;DHT22;8990;33.226;-97.150;2023-07-31T01:20:12;37.10;96.00
17740;DHT22;8990;33.226;-97.150;2023-07-31T01:23:16;37.00;96.20
17740;DHT22;8990;33.226;-97.150;2023-07-31T01:25:55;36.90;96.40
17740;DHT22;8990;33.226;-97.150;2023-07-31T01:28:31;36.80;96.50
17740;DHT22;8990;33.226;-97.150;2023-07-31T01:31:03;36.80;96.70
17740;DHT22;8990;33.226;-97.150;2023-07-31T01:33:35;36.70;96.80
17740;DHT22;8990;33.226;-97.150;2023-07-31T01:36:06;36.60;97.00
17740;DHT22;8990;33.226;-97.150;2023-07-31T01:38:35;36.60;97.20
17740;DHT22;8990;33.226;-97.150;2023-07-31T01:41:07;36.50;97.30
17740;DHT22;8990;33.226;-97.150;2023-07-31T01:43:38;36.40;97.40
17740;DHT22;8990;33.226;-97.150;2023-07-31T01:46:07;36.40;97.60
17740;DHT22;8990;33.226;-97.150;2023-07-31T01:48:36;36.30;97.70
17740;DHT22;8990;33.226;-97.150;2023-07-31T01:51:06;36.30;97.90
17740;DHT22;8990;33.226;-97.150;2023-07-31T01:53:35;36.30;98.00
17740;DHT22;8990;33.226;-97.150;2023-07-31T01:56:06;36.30;98.10
17740;DHT22;8990;33.226;-97.150;2023-07-31T01:58:37;36.30;98.00
17740;DHT22;8990;33.226;-97.150;2023-07-31T02:01:06;36.30;98.00
17740;DHT22;8990;33.226;-97.150;2023-07-31T02:03:34;36.30;97.90
17740;DHT22;8990;33.226;-97.150;2023-07-31T02:06:03;36.20;97.60
17740;DHT22;8990;33.226;-97.150;2023-07-31T02:08:32;36.20;97.40
17740;DHT22;8990;33.226;-97.150;2023-07-31T02:11:01;36.10;97.10
17740;DHT22;8990;33.226;-97.150;2023-07-31T02:13:33;36.10;97.10
17740;DHT22;8990;33.226;-97.150;2023-07-31T02:16:03;36.00;97.10
17740;DHT22;8990;33.226;-97.150;2023-07-31T02:18:31;35.90;97.00
17740;DHT22;8990;33.226;-97.150;2023-07-31T02:21:02;35.80;96.80
17740;DHT22;8990;33.226;-97.150;2023-07-31T02:23:31;35.80;96.70
17740;DHT22;8990;33.226;-97.150;2023-07-31T02:26:00;35.70;96.80
17740;DHT22;8990;33.226;-97.150;2023-07-31T02:28:29;35.60;96.80
17740;DHT22;8990;33.226;-97.150;2023-07-31T02:30:59;35.60;96.80
17740;DHT22;8990;33.226;-97.150;2023-07-31T02:33:28;35.50;96.90
17740;DHT22;8990;33.226;-97.150;2023-07-31T02:35:57;35.50;97.00
17740;DHT22;8990;33.226;-97.150;2023-07-31T02:38:26;35.50;97.10
17740;DHT22;8990;33.226;-97.150;2023-07-31T02:40:55;35.40;97.10
17740;DHT22;8990;33.226;-97.150;2023-07-31T02:43:24;35.40;97.30
17740;DHT22;8990;33.226;-97.150;2023-07-31T02:45:53;35.30;97.20
17740;DHT22;8990;33.226;-97.150;2023-07-31T02:48:27;35.30;97.30
17740;DHT22;8990;33.226;-97.150;2023-07-31T02:50:56;35.30;97.50
17740;DHT22;8990;33.226;-97.150;2023-07-31T02:53:25;35.20;97.50
17740;DHT22;8990;33.226;-97.150;2023-07-31T02:55:54;35.30;97.60
17740;DHT22;8990;33.226;-97.150;2023-07-31T02:58:22;35.20;97.70
17740;DHT22;8990;33.226;-97.150;2023-07-31T03:00:51;35.30;97.80
17740;DHT22;8990;33.226;-97.150;2023-07-31T03:03:20;35.30;97.70
17740;DHT22;8990;33.226;-97.150;2023-07-31T03:05:51;35.30;97.80
17740;DHT22;8990;33.226;-97.150;2023-07-31T03:08:21;35.30;97.90
17740;DHT22;8990;33.226;-97.150;2023-07-31T03:10:50;35.30;98.00
17740;DHT22;8990;33.226;-97.150;2023-07-31T03:13:19;35.20;98.10
17740;DHT22;8990;33.226;-97.150;2023-07-31T03:15:48;35.20;98.20
17740;DHT22;8990;33.226;-97.150;2023-07-31T03:18:17;35.10;98.40
17740;DHT22;8990;33.226;-97.150;2023-07-31T03:20:46;35.10;98.50
17740;DHT22;8990;33.226;-97.150;2023-07-31T03:23:16;35.10;98.60
17740;DHT22;8990;33.226;-97.150;2023-07-31T03:25:56;34.90;98.70
17740;DHT22;8990;33.226;-97.150;2023-07-31T03:28:28;34.90;98.80
17740;DHT22;8990;33.226;-97.150;2023-07-31T03:30:57;34.90;98.90
17740;DHT22;8990;33.226;-97.150;2023-07-31T03:33:26;34.80;99.00
17740;DHT22;8990;33.226;-97.150;2023-07-31T03:35:55;34.70;99.10
17740;DHT22;8990;33.226;-97.150;2023-07-31T03:38:26;34.70;99.10
17740;DHT22;8990;33.226;-97.150;2023-07-31T03:40:55;34.70;99.20
17740;DHT22;8990;33.226;-97.150;2023-07-31T03:43:26;34.60;99.40
17740;DHT22;8990;33.226;-97.150;2023-07-31T03:45:57;34.60;99.40
17740;DHT22;8990;33.226;-97.150;2023-07-31T03:48:26;34.60;99.90
17740;DHT22;8990;33.226;-97.150;2023-07-31T03:50:55;34.50;99.90
17740;DHT22;8990;33.226;-97.150;2023-07-31T03:53:26;34.30;99.90
17740;DHT22;8990;33.226;-97.150;2023-07-31T03:55:55;34.20;99.90
17740;DHT22;8990;33.226;-97.150;2023-07-31T03:58:24;34.10;99.90
17740;DHT22;8990;33.226;-97.150;2023-07-31T04:00:53;34.20;99.90
17740;DHT22;8990;33.226;-97.150;2023-07-31T04:03:22;34.00;99.90
17740;DHT22;8990;33.226;-97.150;2023-07-31T04:05:51;33.90;99.90
17740;DHT22;8990;33.226;-97.150;2023-07-31T04:08:19;33.80;99.90
17740;DHT22;8990;33.226;-97.150;2023-07-31T04:10:50;33.80;99.90
17740;DHT22;8990;33.226;-97.150;2023-07-31T04:13:19;33.70;99.90
17740;DHT22;8990;33.226;-97.150;2023-07-31T04:15:49;33.70;99.90
17740;DHT22;8990;33.226;-97.150;2023-07-31T04:18:18;33.70;99.90
17740;DHT22;8990;33.226;-97.150;2023-07-31T04:20:47;33.60;99.90
17740;DHT22;8990;33.226;-97.150;2023-07-31T04:23:16;33.60;99.90
17740;DHT22;8990;33.226;-97.150;2023-07-31T04:25:45;33.50;99.90
17740;DHT22;8990;33.226;-97.150;2023-07-31T04:28:16;33.40;99.90
17740;DHT22;8990;33.226;-97.150;2023-07-31T04:30:45;33.30;99.90
17740;DHT22;8990;33.226;-97.150;2023-07-31T04:33:14;33.30;99.90
17740;DHT22;8990;33.226;-97.150;2023-07-31T04:35:49;33.20;99.90
17740;DHT22;8990;33.226;-97.150;2023-07-31T04:38:20;33.30;99.90
17740;DHT22;8990;33.226;-97.150;2023-07-31T04:40:50;33.30;99.90
17740;DHT22;8990;33.226;-97.150;2023-07-31T04:43:20;33.30;99.90
17740;DHT22;8990;33.226;-97.150;2023-07-31T04:45:49;33.30;99.90
17740;DHT22;8990;33.226;-97.150;2023-07-31T04:48:18;33.30;99.90
17740;DHT22;8990;33.226;-97.150;2023-07-31T04:50:47;33.30;99.90
17740;DHT22;8990;33.226;-97.150;2023-07-31T04:53:16;33.30;99.90
17740;DHT22;8990;33.226;-97.150;2023-07-31T04:55:45;33.30;99.90
17740;DHT22;8990;33.226;-97.150;2023-07-31T04:58:14;33.20;99.90
17740;DHT22;8990;33.226;-97.150;2023-07-31T05:00:45;33.20;99.90
17740;DHT22;8990;33.226;-97.150;2023-07-31T05:03:14;33.20;99.90
17740;DHT22;8990;33.226;-97.150;2023-07-31T05:05:43;33.10;99.90
17740;DHT22;8990;33.226;-97.150;2023-07-31T05:08:12;33.10;99.90
17740;DHT22;8990;33.226;-97.150;2023-07-31T05:10:40;33.00;99.90
17740;DHT22;8990;33.226;-97.150;2023-07-31T05:13:10;32.90;99.90
17740;DHT22;8990;33.226;-97.150;2023-07-31T05:15:39;32.80;99.90
17740;DHT22;8990;33.226;-97.150;2023-07-31T05:18:10;32.70;99.90
17740;DHT22;8990;33.226;-97.150;2023-07-31T05:20:40;32.60;99.90
17740;DHT22;8990;33.226;-97.150;2023-07-31T05:23:09;32.60;99.90
17740;DHT22;8990;33.226;-97.150;2023-07-31T05:25:38;32.60;99.90
17740;DHT22;8990;33.226;-97.150;2023-07-31T05:28:07;32.50;99.90
17740;DHT22;8990;33.226;-97.150;2023-07-31T05:30:37;32.40;99.90
17740;DHT22;8990;33.226;-97.150;2023-07-31T05:33:06;32.40;99.90
17740;DHT22;8990;33.226;-97.150;2023-07-31T05:35:36;32.30;99.90
17740;DHT22;8990;33.226;-97.150;2023-07-31T05:38:05;32.30;99.90
17740;DHT22;8990;33.226;-97.150;2023-07-31T05:40:34;32.30;99.90
17740;DHT22;8990;33.226;-97.150;2023-07-31T05:43:03;32.40;99.90
17740;DHT22;8990;33.226;-97.150;2023-07-31T05:45:33;32.40;99.90
17740;DHT22;8990;33.226;-97.150;2023-07-31T05:48:03;32.30;99.90
17740;DHT22;8990;33.226;-97.150;2023-07-31T05:50:32;32.30;99.90
17740;DHT22;8990;33.226;-97.150;2023-07-31T05:53:02;32.20;99.90
17740;DHT22;8990;33.226;-97.150;2023-07-31T05:55:31;32.20;99.90
17740;DHT22;8990;33.226;-97.150;2023-07-31T05:58:00;32.20;99.90
17740;DHT22;8990;33.226;-97.150;2023-07-31T06:00:29;32.20;99.90
17740;DHT22;8990;33.226;-97.150;2023-07-31T06:02:57;32.30;99.90
17740;DHT22;8990;33.226;-97.150;2023-07-31T06:05:27;32.20;99.90
17740;DHT22;8990;33.226;-97.150;2023-07-31T06:07:57;32.20;99.90
17740;DHT22;8990;33.226;-97.150;2023-07-31T06:10:27;32.20;99.90
17740;DHT22;8990;33.226;-97.150;2023-07-31T06:12:56;32.20;99.90
17740;DHT22;8990;33.226;-97.150;2023-07-31T06:15:25;32.10;99.90
17740;DHT22;8990;33.226;-97.150;2023-07-31T06:17:54;32.10;99.90
17740;DHT22;8990;33.226;-97.150;2023-07-31T06:20:23;32.10;99.90
17740;DHT22;8990;33.226;-97.150;2023-07-31T06:22:52;32.00;99.90
17740;DHT22;8990;33.226;-97.150;2023-07-31T06:25:21;32.00;99.90
17740;DHT22;8990;33.226;-97.150;2023-07-31T06:27:51;31.90;99.90
17740;DHT22;8990;33.226;-97.150;2023-07-31T06:30:20;31.90;99.90
17740;DHT22;8990;33.226;-97.150;2023-07-31T06:32:49;31.80;99.90
17740;DHT22;8990;33.226;-97.150;2023-07-31T06:35:19;31.70;99.90
17740;DHT22;8990;33.226;-97.150;2023-07-31T06:37:48;31.50;99.90
17740;DHT22;8990;33.226;-97.150;2023-07-31T06:40:18;31.50;99.90
17740;DHT22;8990;33.226;-97.150;2023-07-31T06:42:46;31.50;99.90
17740;DHT22;8990;33.226;-97.150;2023-07-31T06:45:17;31.40;99.90
17740;DHT22;8990;33.226;-97.150;2023-07-31T06:47:46;31.30;99.90
17740;DHT22;8990;33.226;-97.150;2023-07-31T06:50:15;31.40;99.90
17740;DHT22;8990;33.226;-97.150;2023-07-31T06:52:44;31.40;99.90
17740;DHT22;8990;33.226;-97.150;2023-07-31T06:55:20;31.40;99.90
17740;DHT22;8990;33.226;-97.150;2023-07-31T06:57:51;31.30;99.90
17740;DHT22;8990;33.226;-97.150;2023-07-31T07:00:22;31.30;99.90
17740;DHT22;8990;33.226;-97.150;2023-07-31T07:02:51;31.30;99.90
17740;DHT22;8990;33.226;-97.150;2023-07-31T07:05:20;31.20;99.90
17740;DHT22;8990;33.226;-97.150;2023-07-31T07:07:50;31.20;99.90
17740;DHT22;8990;33.226;-97.150;2023-07-31T07:10:20;31.20;99.90
17740;DHT22;8990;33.226;-97.150;2023-07-31T07:12:49;31.20;99.90
17740;DHT22;8990;33.226;-97.150;2023-07-31T07:15:18;31.20;99.90
17740;DHT22;8990;33.226;-97.150;2023-07-31T07:17:48;31.20;99.90
17740;DHT22;8990;33.226;-97.150;2023-07-31T07:20:17;31.10;99.90
17740;DHT22;8990;33.226;-97.150;2023-07-31T07:22:46;31.10;99.90
17740;DHT22;8990;33.226;-97.150;2023-07-31T07:25:16;31.10;99.90
17740;DHT22;8990;33.226;-97.150;2023-07-31T07:27:45;31.00;99.90
17740;DHT22;8990;33.226;-97.150;2023-07-31T07:30:13;31.00;99.90
17740;DHT22;8990;33.226;-97.150;2023-07-31T07:32:42;30.90;99.90
17740;DHT22;8990;33.226;-97.150;2023-07-31T07:35:13;30.90;99.90
17740;DHT22;8990;33.226;-97.150;2023-07-31T07:37:42;30.90;99.90
17740;DHT22;8990;33.226;-97.150;2023-07-31T07:40:11;30.90;99.90
17740;DHT22;8990;33.226;-97.150;2023-07-31T07:42:40;30.90;99.90
17740;DHT22;8990;33.226;-97.150;2023-07-31T07:45:10;30.80;99.90
17740;DHT22;8990;33.226;-97.150;2023-07-31T07:47:41;30.80;99.90
17740;DHT22;8990;33.226;-97.150;2023-07-31T07:50:12;30.80;99.90
17740;DHT22;8990;33.226;-97.150;2023-07-31T07:52:41;30.80;99.90
17740;DHT22;8990;33.226;-97.150;2023-07-31T07:55:10;30.70;99.90
17740;DHT22;8990;33.226;-97.150;2023-07-31T07:57:38;30.70;99.90
17740;DHT22;8990;33.226;-97.150;2023-07-31T08:00:08;30.70;99.90
17740;DHT22;8990;33.226;-97.150;2023-07-31T08:02:43;30.60;99.90
17740;DHT22;8990;33.226;-97.150;2023-07-31T08:05:14;30.60;99.90
17740;DHT22;8990;33.226;-97.150;2023-07-31T08:07:44;30.60;99.90
17740;DHT22;8990;33.226;-97.150;2023-07-31T08:10:13;30.50;99.90
17740;DHT22;8990;33.226;-97.150;2023-07-31T08:12:42;30.50;99.90
17740;DHT22;8990;33.226;-97.150;2023-07-31T08:15:11;30.50;99.90
17740;DHT22;8990;33.226;-97.150;2023-07-31T08:17:39;30.40;99.90
17740;DHT22;8990;33.226;-97.150;2023-07-31T08:20:09;30.40;99.90
17740;DHT22;8990;33.226;-97.150;2023-07-31T08:22:40;30.40;99.90
17740;DHT22;8990;33.226;-97.150;2023-07-31T08:25:09;30.20;99.90
17740;DHT22;8990;33.226;-97.150;2023-07-31T08:27:38;30.20;99.90
17740;DHT22;8990;33.226;-97.150;2023-07-31T08:30:07;30.20;99.90
17740;DHT22;8990;33.226;-97.150;2023-07-31T08:32:36;30.20;99.90
17740;DHT22;8990;33.226;-97.150;2023-07-31T08:35:07;30.30;99.90
17740;DHT22;8990;33.226;-97.150;2023-07-31T08:37:36;30.30;99.90
17740;DHT22;8990;33.226;-97.150;2023-07-31T08:40:07;30.30;99.90
17740;DHT22;8990;33.226;-97.150;2023-07-31T08:42:44;30.40;99.90
17740;DHT22;8990;33.226;-97.150;2023-07-31T08:45:15;30.40;99.90
17740;DHT22;8990;33.226;-97.150;2023-07-31T08:47:46;30.50;99.90
17740;DHT22;8990;33.226;-97.150;2023-07-31T08:50:16;30.40;99.90
17740;DHT22;8990;33.226;-97.150;2023-07-31T08:52:46;30.40;99.90
17740;DHT22;8990;33.226;-97.150;2023-07-31T08:55:17;30.40;99.90
17740;DHT22;8990;33.226;-97.150;2023-07-31T08:57:52;30.40;99.90
17740;DHT22;8990;33.226;-97.150;2023-07-31T09:00:21;30.50;99.90
17740;DHT22;8990;33.226;-97.150;2023-07-31T09:02:56;30.50;99.90
17740;DHT22;8990;33.226;-97.150;2023-07-31T09:05:26;30.40;99.90
17740;DHT22;8990;33.226;-97.150;2023-07-31T09:07:56;30.30;99.90
17740;DHT22;8990;33.226;-97.150;2023-07-31T09:10:27;30.20;99.90
17740;DHT22;8990;33.226;-97.150;2023-07-31T09:12:56;30.00;99.90
17740;DHT22;8990;33.226;-97.150;2023-07-31T09:15:28;29.80;99.90
17740;DHT22;8990;33.226;-97.150;2023-07-31T09:18:00;29.70;99.90
17740;DHT22;8990;33.226;-97.150;2023-07-31T09:20:29;29.70;99.90
17740;DHT22;8990;33.226;-97.150;2023-07-31T09:23:05;29.60;99.90
17740;DHT22;8990;33.226;-97.150;2023-07-31T09:25:38;29.60;99.90
17740;DHT22;8990;33.226;-97.150;2023-07-31T09:28:08;29.60;99.90
17740;DHT22;8990;33.226;-97.150;2023-07-31T09:30:47;29.60;99.90
17740;DHT22;8990;33.226;-97.150;2023-07-31T09:33:17;29.50;99.90
17740;DHT22;8990;33.226;-97.150;2023-07-31T09:35:47;29.30;99.90
17740;DHT22;8990;33.226;-97.150;2023-07-31T09:38:16;29.20;99.90
17740;DHT22;8990;33.226;-97.150;2023-07-31T09:40:48;29.10;99.90
17740;DHT22;8990;33.226;-97.150;2023-07-31T09:43:19;28.90;99.90
17740;DHT22;8990;33.226;-97.150;2023-07-31T09:45:48;28.80;99.90
17740;DHT22;8990;33.226;-97.150;2023-07-31T09:48:24;28.70;99.90
17740;DHT22;8990;33.226;-97.150;2023-07-31T09:50:54;28.80;99.90
17740;DHT22;8990;33.226;-97.150;2023-07-31T09:53:29;28.90;99.90
17740;DHT22;8990;33.226;-97.150;2023-07-31T09:56:01;28.90;99.90
17740;DHT22;8990;33.226;-97.150;2023-07-31T09:58:33;28.70;99.90
17740;DHT22;8990;33.226;-97.150;2023-07-31T10:01:03;28.60;99.90
17740;DHT22;8990;33.226;-97.150;2023-07-31T10:03:32;28.50;99.90
17740;DHT22;8990;33.226;-97.150;2023-07-31T10:06:02;28.30;99.90
17740;DHT22;8990;33.226;-97.150;2023-07-31T10:08:34;28.20;99.90
17740;DHT22;8990;33.226;-97.150;2023-07-31T10:11:06;28.20;99.90
17740;DHT22;8990;33.226;-97.150;2023-07-31T10:13:35;28.20;99.90
17740;DHT22;8990;33.226;-97.150;2023-07-31T10:16:05;28.20;99.90
17740;DHT22;8990;33.226;-97.150;2023-07-31T10:18:35;28.10;99.90
17740;DHT22;8990;33.226;-97.150;2023-07-31T10:21:05;28.00;99.90
17740;DHT22;8990;33.226;-97.150;2023-07-31T10:23:34;27.80;99.90
17740;DHT22;8990;33.226;-97.150;2023-07-31T10:26:06;27.80;99.90
17740;DHT22;8990;33.226;-97.150;2023-07-31T10:28:36;27.70;99.90
17740;DHT22;8990;33.226;-97.150;2023-07-31T10:31:06;27.70;99.90
17740;DHT22;8990;33.226;-97.150;2023-07-31T10:33:35;27.70;99.90
17740;DHT22;8990;33.226;-97.150;2023-07-31T10:36:17;27.60;99.90
17740;DHT22;8990;33.226;-97.150;2023-07-31T10:38:49;27.50;99.90
17740;DHT22;8990;33.226;-97.150;2023-07-31T10:41:20;27.60;99.90
17740;DHT22;8990;33.226;-97.150;2023-07-31T10:43:58;27.70;99.90
17740;DHT22;8990;33.226;-97.150;2023-07-31T10:46:28;27.60;99.90
17740;DHT22;8990;33.226;-97.150;2023-07-31T10:48:58;27.50;99.90
17740;DHT22;8990;33.226;-97.150;2023-07-31T10:51:33;27.60;99.90
17740;DHT22;8990;33.226;-97.150;2023-07-31T10:54:12;27.60;99.90
17740;DHT22;8990;33.226;-97.150;2023-07-31T10:56:45;27.40;99.90
17740;DHT22;8990;33.226;-97.150;2023-07-31T10:59:14;27.40;99.90
17740;DHT22;8990;33.226;-97.150;2023-07-31T11:01:51;27.30;99.90
17740;DHT22;8990;33.226;-97.150;2023-07-31T11:04:24;27.30;99.90
17740;DHT22;8990;33.226;-97.150;2023-07-31T11:06:57;27.30;99.90
17740;DHT22;8990;33.226;-97.150;2023-07-31T11:09:29;27.20;99.90
17740;DHT22;8990;33.226;-97.150;2023-07-31T11:12:01;27.20;99.90
17740;DHT22;8990;33.226;-97.150;2023-07-31T11:14:30;27.20;99.90
17740;DHT22;8990;33.226;-97.150;2023-07-31T11:16:59;27.20;99.90
17740;DHT22;8990;33.226;-97.150;2023-07-31T11:19:28;27.20;99.90
17740;DHT22;8990;33.226;-97.150;2023-07-31T11:21:59;27.10;99.90
17740;DHT22;8990;33.226;-97.150;2023-07-31T11:24:28;27.20;99.90
17740;DHT22;8990;33.226;-97.150;2023-07-31T11:26:57;27.20;99.90
17740;DHT22;8990;33.226;-97.150;2023-07-31T11:29:29;27.20;99.90
17740;DHT22;8990;33.226;-97.150;2023-07-31T11:31:59;27.10;99.90
17740;DHT22;8990;33.226;-97.150;2023-07-31T11:34:27;27.10;99.90
17740;DHT22;8990;33.226;-97.150;2023-07-31T11:36:56;27.00;99.90
17740;DHT22;8990;33.226;-97.150;2023-07-31T11:39:26;27.10;99.90
17740;DHT22;8990;33.226;-97.150;2023-07-31T11:41:59;27.00;99.90
17740;DHT22;8990;33.226;-97.150;2023-07-31T11:44:39;27.00;99.90
17740;DHT22;8990;33.226;-97.150;2023-07-31T11:47:15;27.00;99.90
17740;DHT22;8990;33.226;-97.150;2023-07-31T11:49:44;27.10;99.90
17740;DHT22;8990;33.226;-97.150;2023-07-31T11:52:13;27.30;99.90
17740;DHT22;8990;33.226;-97.150;2023-07-31T11:54:43;27.40;99.90
17740;DHT22;8990;33.226;-97.150;2023-07-31T11:57:13;27.40;99.90
17740;DHT22;8990;33.226;-97.150;2023-07-31T11:59:43;27.40;99.90
17740;DHT22;8990;33.226;-97.150;2023-07-31T12:02:12;27.50;99.90
17740;DHT22;8990;33.226;-97.150;2023-07-31T12:04:41;27.40;99.90
17740;DHT22;8990;33.226;-97.150;2023-07-31T12:07:11;27.50;99.90
17740;DHT22;8990;33.226;-97.150;2023-07-31T12:09:52;27.40;99.90
17740;DHT22;8990;33.226;-97.150;2023-07-31T12:12:21;27.20;99.90
17740;DHT22;8990;33.226;-97.150;2023-07-31T12:14:53;27.30;99.90
17740;DHT22;8990;33.226;-97.150;2023-07-31T12:17:23;27.50;99.90
17740;DHT22;8990;33.226;-97.150;2023-07-31T12:19:54;27.60;99.90
17740;DHT22;8990;33.226;-97.150;2023-07-31T12:22:23;27.50;99.90
17740;DHT22;8990;33.226;-97.150;2023-07-31T12:24:54;27.50;99.90
17740;DHT22;8990;33.226;-97.150;2023-07-31T12:27:23;27.70;99.90
17740;DHT22;8990;33.226;-97.150;2023-07-31T12:29:54;27.80;99.90
17740;DHT22;8990;33.226;-97.150;2023-07-31T12:32:24;27.90;99.90
17740;DHT22;8990;33.226;-97.150;2023-07-31T12:34:58;27.90;99.90
17740;DHT22;8990;33.226;-97.150;2023-07-31T12:37:29;28.10;99.90
17740;DHT22;8990;33.226;-97.150;2023-07-31T12:39:59;28.10;99.90
17740;DHT22;8990;33.226;-97.150;2023-07-31T12:42:31;28.30;99.90
17740;DHT22;8990;33.226;-97.150;2023-07-31T12:45:02;28.30;99.90
17740;DHT22;8990;33.226;-97.150;2023-07-31T12:47:31;28.50;99.90
17740;DHT22;8990;33.226;-97.150;2023-07-31T12:50:00;28.60;99.90
17740;DHT22;8990;33.226;-97.150;2023-07-31T12:52:29;28.80;99.90
17740;DHT22;8990;33.226;-97.150;2023-07-31T12:54:58;28.90;99.90
17740;DHT22;8990;33.226;-97.150;2023-07-31T12:57:27;29.00;99.90
17740;DHT22;8990;33.226;-97.150;2023-07-31T12:59:56;29.20;99.90
17740;DHT22;8990;33.226;-97.150;2023-07-31T13:02:26;29.20;99.90
17740;DHT22;8990;33.226;-97.150;2023-07-31T13:04:55;29.30;99.90
17740;DHT22;8990;33.226;-97.150;2023-07-31T13:07:24;29.50;99.90
17740;DHT22;8990;33.226;-97.150;2023-07-31T13:09:53;29.60;99.90
17740;DHT22;8990;33.226;-97.150;2023-07-31T13:12:22;29.80;99.90
17740;DHT22;8990;33.226;-97.150;2023-07-31T13:14:52;30.00;99.90
17740;DHT22;8990;33.226;-97.150;2023-07-31T13:17:21;30.30;99.90
17740;DHT22;8990;33.226;-97.150;2023-07-31T13:19:52;30.50;99.90
17740;DHT22;8990;33.226;-97.150;2023-07-31T13:22:21;30.70;99.90
17740;DHT22;8990;33.226;-97.150;2023-07-31T13:24:50;30.90;99.90
17740;DHT22;8990;33.226;-97.150;2023-07-31T13:27:19;31.10;99.90
17740;DHT22;8990;33.226;-97.150;2023-07-31T13:29:48;31.30;99.90
17740;DHT22;8990;33.226;-97.150;2023-07-31T13:32:18;31.50;99.90
17740;DHT22;8990;33.226;-97.150;2023-07-31T13:34:48;31.70;99.90
17740;DHT22;8990;33.226;-97.150;2023-07-31T13:37:19;31.80;99.90
17740;DHT22;8990;33.226;-97.150;2023-07-31T13:39:47;31.90;99.90
17740;DHT22;8990;33.226;-97.150;2023-07-31T13:42:16;32.00;99.90
17740;DHT22;8990;33.226;-97.150;2023-07-31T13:44:45;32.10;99.90
17740;DHT22;8990;33.226;-97.150;2023-07-31T13:47:14;32.20;99.90
17740;DHT22;8990;33.226;-97.150;2023-07-31T13:49:43;32.40;99.90
17740;DHT22;8990;33.226;-97.150;2023-07-31T13:52:12;32.50;99.90
17740;DHT22;8990;33.226;-97.150;2023-07-31T13:54:42;32.60;99.90
17740;DHT22;8990;33.226;-97.150;2023-07-31T13:57:11;32.80;99.90
17740;DHT22;8990;33.226;-97.150;2023-07-31T13:59:40;32.80;99.90
17740;DHT22;8990;33.226;-97.150;2023-07-31T14:02:10;32.90;99.90
17740;DHT22;8990;33.226;-97.150;2023-07-31T14:04:39;33.00;99.90
17740;DHT22;8990;33.226;-97.150;2023-07-31T14:07:08;33.20;99.90
17740;DHT22;8990;33.226;-97.150;2023-07-31T14:09:37;33.40;99.90
17740;DHT22;8990;33.226;-97.150;2023-07-31T14:12:08;33.30;99.90
17740;DHT22;8990;33.226;-97.150;2023-07-31T14:14:37;33.50;99.90
17740;DHT22;8990;33.226;-97.150;2023-07-31T14:17:06;33.60;99.90
17740;DHT22;8990;33.226;-97.150;2023-07-31T14:19:35;33.60;99.90
17740;DHT22;8990;33.226;-97.150;2023-07-31T14:22:04;33.60;99.90
17740;DHT22;8990;33.226;-97.150;2023-07-31T14:24:33;33.70;99.90
17740;DHT22;8990;33.226;-97.150;2023-07-31T14:27:02;33.90;99.90
17740;DHT22;8990;33.226;-97.150;2023-07-31T14:29:33;34.00;99.90
17740;DHT22;8990;33.226;-97.150;2023-07-31T14:32:03;34.00;99.90
17740;DHT22;8990;33.226;-97.150;2023-07-31T14:34:32;34.00;99.90
17740;DHT22;8990;33.226;-97.150;2023-07-31T14:37:01;33.90;99.90
17740;DHT22;8990;33.226;-97.150;2023-07-31T14:39:29;34.00;99.90
17740;DHT22;8990;33.226;-97.150;2023-07-31T14:41:58;34.10;99.90
17740;DHT22;8990;33.226;-97.150;2023-07-31T14:44:27;34.20;99.90
17740;DHT22;8990;33.226;-97.150;2023-07-31T14:46:57;34.10;99.90
17740;DHT22;8990;33.226;-97.150;2023-07-31T14:49:26;34.30;99.90
17740;DHT22;8990;33.226;-97.150;2023-07-31T14:51:55;34.40;99.90
17740;DHT22;8990;33.226;-97.150;2023-07-31T14:54:24;34.50;99.90
17740;DHT22;8990;33.226;-97.150;2023-07-31T14:56:54;34.60;99.90
17740;DHT22;8990;33.226;-97.150;2023-07-31T14:59:23;34.60;99.90
17740;DHT22;8990;33.226;-97.150;2023-07-31T15:01:52;34.70;99.90
17740;DHT22;8990;33.226;-97.150;2023-07-31T15:04:23;34.70;99.90
17740;DHT22;8990;33.226;-97.150;2023-07-31T15:06:52;34.80;99.90
17740;DHT22;8990;33.226;-97.150;2023-07-31T15:09:21;35.00;99.90
17740;DHT22;8990;33.226;-97.150;2023-07-31T15:11:50;35.00;99.90
17740;DHT22;8990;33.226;-97.150;2023-07-31T15:14:19;35.10;99.90
17740;DHT22;8990;33.226;-97.150;2023-07-31T15:16:48;35.20;99.90
17740;DHT22;8990;33.226;-97.150;2023-07-31T15:19:17;35.40;99.90
17740;DHT22;8990;33.226;-97.150;2023-07-31T15:21:47;35.50;99.90
17740;DHT22;8990;33.226;-97.150;2023-07-31T15:24:16;35.60;99.90
17740;DHT22;8990;33.226;-97.150;2023-07-31T15:26:45;35.70;99.90
17740;DHT22;8990;33.226;-97.150;2023-07-31T15:29:14;35.90;99.90
17740;DHT22;8990;33.226;-97.150;2023-07-31T15:31:46;36.00;99.90